sensor_id;sensor_type;location;lat;lon;timestamp;P1;durP1;ratioP1;P2;durP2;ratioP2
4646;SDS011;2336;47.822;7.564;2023-10-19T00:02:07;4.43;;;4.13;;
4646;SDS011;2336;47.822;7.564;2023-10-19T00:04:33;5.17;;;4.53;;
4646;SDS011;2336;47.822;7.564;2023-10-19T00:07:01;4.57;;;4.17;;
4646;SDS011;2336;47.822;7.564;2023-10-19T00:09:31;5.50;;;4.47;;
4646;SDS011;2336;47.822;7.564;2023-10-19T00:12:03;6.97;;;4.17;;
4646;SDS011;2336;47.822;7.564;2023-10-19T00:14:31;4.80;;;4.40;;
4646;SDS011;2336;47.822;7.564;2023-10-19T00:16:57;4.20;;;3.90;;
4646;SDS011;2336;47.822;7.564;2023-10-19T00:19:32;4.37;;;3.63;;
4646;SDS011;2336;47.822;7.564;2023-10-19T00:22:04;3.87;;;3.57;;
4646;SDS011;2336;47.822;7.564;2023-10-19T00:24:36;9.80;;;3.37;;
4646;SDS011;2336;47.822;7.564;2023-10-19T00:27:02;3.80;;;3.37;;
4646;SDS011;2336;47.822;7.564;2023-10-19T00:29:40;4.40;;;3.40;;
4646;SDS011;2336;47.822;7.564;2023-10-19T00:32:06;4.47;;;4.07;;
4646;SDS011;2336;47.822;7.564;2023-10-19T00:34:40;4.33;;;3.63;;
4646;SDS011;2336;47.822;7.564;2023-10-19T00:37:08;4.03;;;3.83;;
4646;SDS011;2336;47.822;7.564;2023-10-19T00:39:35;3.80;;;3.40;;
4646;SDS011;2336;47.822;7.564;2023-10-19T00:42:08;9.90;;;4.00;;
4646;SDS011;2336;47.822;7.564;2023-10-19T00:44:36;5.47;;;3.80;;
4646;SDS011;2336;47.822;7.564;2023-10-19T00:47:07;4.27;;;3.97;;
4646;SDS011;2336;47.822;7.564;2023-10-19T00:49:38;3.63;;;3.47;;
4646;SDS011;2336;47.822;7.564;2023-10-19T00:52:06;6.20;;;3.40;;
4646;SDS011;2336;47.822;7.564;2023-10-19T00:54:38;3.40;;;3.30;;
4646;SDS011;2336;47.822;7.564;2023-10-19T00:57:07;4.20;;;3.80;;
4646;SDS011;2336;47.822;7.564;2023-10-19T00:59:35;4.37;;;4.10;;
4646;SDS011;2336;47.822;7.564;2023-10-19T01:02:08;3.63;;;3.37;;
4646;SDS011;2336;47.822;7.564;2023-10-19T01:04:47;5.23;;;3.70;;
4646;SDS011;2336;47.822;7.564;2023-10-19T01:07:22;3.00;;;2.90;;
4646;SDS011;2336;47.822;7.564;2023-10-19T01:09:53;4.50;;;4.20;;
4646;SDS011;2336;47.822;7.564;2023-10-19T01:12:21;4.10;;;3.80;;
4646;SDS011;2336;47.822;7.564;2023-10-19T01:15:04;4.43;;;4.13;;
4646;SDS011;2336;47.822;7.564;2023-10-19T01:17:34;4.30;;;3.97;;
4646;SDS011;2336;47.822;7.564;2023-10-19T01:20:07;4.00;;;3.70;;
4646;SDS011;2336;47.822;7.564;2023-10-19T01:22:55;4.83;;;4.33;;
4646;SDS011;2336;47.822;7.564;2023-10-19T01:25:43;3.93;;;3.70;;
4646;SDS011;2336;47.822;7.564;2023-10-19T01:28:15;4.00;;;3.70;;
4646;SDS011;2336;47.822;7.564;2023-10-19T01:30:42;4.30;;;4.10;;
4646;SDS011;2336;47.822;7.564;2023-10-19T01:33:10;4.17;;;3.97;;
4646;SDS011;2336;47.822;7.564;2023-10-19T01:35:40;4.37;;;4.10;;
4646;SDS011;2336;47.822;7.564;2023-10-19T01:38:27;5.73;;;4.07;;
4646;SDS011;2336;47.822;7.564;2023-10-19T01:40:56;5.07;;;4.57;;
4646;SDS011;2336;47.822;7.564;2023-10-19T01:43:24;4.77;;;4.20;;
4646;SDS011;2336;47.822;7.564;2023-10-19T01:45:55;3.77;;;3.60;;
4646;SDS011;2336;47.822;7.564;2023-10-19T01:48:21;9.33;;;4.67;;
4646;SDS011;2336;47.822;7.564;2023-10-19T01:50:57;5.70;;;4.60;;
4646;SDS011;2336;47.822;7.564;2023-10-19T01:53:24;5.37;;;5.17;;
4646;SDS011;2336;47.822;7.564;2023-10-19T01:55:53;5.50;;;5.30;;
4646;SDS011;2336;47.822;7.564;2023-10-19T01:58:23;5.73;;;5.33;;
4646;SDS011;2336;47.822;7.564;2023-10-19T02:00:51;7.50;;;6.77;;
4646;SDS011;2336;47.822;7.564;2023-10-19T02:03:20;6.07;;;5.57;;
4646;SDS011;2336;47.822;7.564;2023-10-19T02:05:50;7.30;;;6.10;;
4646;SDS011;2336;47.822;7.564;2023-10-19T02:08:23;6.13;;;5.67;;
4646;SDS011;2336;47.822;7.564;2023-10-19T02:10:53;6.40;;;5.93;;
4646;SDS011;2336;47.822;7.564;2023-10-19T02:13:19;8.90;;;8.10;;
4646;SDS011;2336;47.822;7.564;2023-10-19T02:15:46;8.40;;;7.60;;
4646;SDS011;2336;47.822;7.564;2023-10-19T02:18:12;9.40;;;7.67;;
4646;SDS011;2336;47.822;7.564;2023-10-19T02:20:39;9.07;;;8.30;;
4646;SDS011;2336;47.822;7.564;2023-10-19T02:23:06;10.97;;;8.00;;
4646;SDS011;2336;47.822;7.564;2023-10-19T02:25:33;8.67;;;7.50;;
4646;SDS011;2336;47.822;7.564;2023-10-19T02:28:03;9.20;;;8.33;;
4646;SDS011;2336;47.822;7.564;2023-10-19T02:30:31;8.00;;;7.40;;
4646;SDS011;2336;47.822;7.564;2023-10-19T02:32:59;9.17;;;8.47;;
4646;SDS011;2336;47.822;7.564;2023-10-19T02:35:25;9.90;;;8.90;;
4646;SDS011;2336;47.822;7.564;2023-10-19T02:37:52;11.20;;;10.10;;
4646;SDS011;2336;47.822;7.564;2023-10-19T02:40:19;10.13;;;9.13;;
4646;SDS011;2336;47.822;7.564;2023-10-19T02:42:48;9.50;;;8.70;;
4646;SDS011;2336;47.822;7.564;2023-10-19T02:45:19;10.07;;;9.27;;
4646;SDS011;2336;47.822;7.564;2023-10-19T02:47:45;9.43;;;8.63;;
4646;SDS011;2336;47.822;7.564;2023-10-19T02:50:12;10.70;;;9.80;;
4646;SDS011;2336;47.822;7.564;2023-10-19T02:52:41;10.60;;;9.70;;
4646;SDS011;2336;47.822;7.564;2023-10-19T02:55:08;11.00;;;9.90;;
4646;SDS011;2336;47.822;7.564;2023-10-19T02:57:35;9.37;;;8.43;;
4646;SDS011;2336;47.822;7.564;2023-10-19T03:00:04;9.53;;;8.73;;
4646;SDS011;2336;47.822;7.564;2023-10-19T03:02:37;11.00;;;10.00;;
4646;SDS011;2336;47.822;7.564;2023-10-19T03:05:05;12.70;;;9.67;;
4646;SDS011;2336;47.822;7.564;2023-10-19T03:07:38;9.93;;;9.00;;
4646;SDS011;2336;47.822;7.564;2023-10-19T03:10:05;11.67;;;10.57;;
4646;SDS011;2336;47.822;7.564;2023-10-19T03:12:32;10.77;;;9.77;;
4646;SDS011;2336;47.822;7.564;2023-10-19T03:14:58;10.73;;;9.73;;
4646;SDS011;2336;47.822;7.564;2023-10-19T03:17:25;10.23;;;9.37;;
4646;SDS011;2336;47.822;7.564;2023-10-19T03:19:56;9.67;;;8.70;;
4646;SDS011;2336;47.822;7.564;2023-10-19T03:22:21;10.03;;;9.20;;
4646;SDS011;2336;47.822;7.564;2023-10-19T03:24:48;10.03;;;9.23;;
4646;SDS011;2336;47.822;7.564;2023-10-19T03:27:23;10.53;;;9.53;;
4646;SDS011;2336;47.822;7.564;2023-10-19T03:29:50;9.93;;;9.03;;
4646;SDS011;2336;47.822;7.564;2023-10-19T03:32:20;10.87;;;9.97;;
4646;SDS011;2336;47.822;7.564;2023-10-19T03:34:51;11.40;;;9.53;;
4646;SDS011;2336;47.822;7.564;2023-10-19T03:37:22;17.20;;;11.37;;
4646;SDS011;2336;47.822;7.564;2023-10-19T03:39:50;12.77;;;10.70;;
4646;SDS011;2336;47.822;7.564;2023-10-19T03:42:17;11.70;;;10.57;;
4646;SDS011;2336;47.822;7.564;2023-10-19T03:44:46;11.93;;;10.77;;
4646;SDS011;2336;47.822;7.564;2023-10-19T03:47:18;11.47;;;10.33;;
4646;SDS011;2336;47.822;7.564;2023-10-19T03:49:45;12.37;;;11.13;;
4646;SDS011;2336;47.822;7.564;2023-10-19T03:52:12;11.27;;;10.30;;
4646;SDS011;2336;47.822;7.564;2023-10-19T03:54:53;12.30;;;11.10;;
4646;SDS011;2336;47.822;7.564;2023-10-19T03:57:20;10.80;;;10.00;;
4646;SDS011;2336;47.822;7.564;2023-10-19T03:59:48;14.50;;;12.17;;
4646;SDS011;2336;47.822;7.564;2023-10-19T04:02:18;12.27;;;11.17;;
4646;SDS011;2336;47.822;7.564;2023-10-19T04:04:46;13.70;;;10.93;;
4646;SDS011;2336;47.822;7.564;2023-10-19T04:07:14;12.90;;;11.77;;
4646;SDS011;2336;47.822;7.564;2023-10-19T04:09:46;11.60;;;10.50;;
4646;SDS011;2336;47.822;7.564;2023-10-19T04:12:37;12.20;;;11.00;;
4646;SDS011;2336;47.822;7.564;2023-10-19T04:15:07;11.20;;;10.20;;
4646;SDS011;2336;47.822;7.564;2023-10-19T04:17:37;12.80;;;11.53;;
4646;SDS011;2336;47.822;7.564;2023-10-19T04:20:06;12.60;;;11.33;;
4646;SDS011;2336;47.822;7.564;2023-10-19T04:22:51;12.83;;;11.53;;
4646;SDS011;2336;47.822;7.564;2023-10-19T04:25:18;10.70;;;9.60;;
4646;SDS011;2336;47.822;7.564;2023-10-19T04:27:47;11.87;;;10.40;;
4646;SDS011;2336;47.822;7.564;2023-10-19T04:30:14;9.80;;;8.90;;
4646;SDS011;2336;47.822;7.564;2023-10-19T04:32:41;11.40;;;10.50;;
4646;SDS011;2336;47.822;7.564;2023-10-19T04:35:08;9.93;;;9.03;;
4646;SDS011;2336;47.822;7.564;2023-10-19T04:37:36;10.77;;;9.87;;
4646;SDS011;2336;47.822;7.564;2023-10-19T04:40:07;11.73;;;10.60;;
4646;SDS011;2336;47.822;7.564;2023-10-19T04:42:35;11.47;;;9.93;;
4646;SDS011;2336;47.822;7.564;2023-10-19T04:45:05;11.17;;;10.07;;
4646;SDS011;2336;47.822;7.564;2023-10-19T04:47:32;11.00;;;10.10;;
4646;SDS011;2336;47.822;7.564;2023-10-19T04:50:00;12.07;;;10.70;;
4646;SDS011;2336;47.822;7.564;2023-10-19T04:52:27;10.80;;;10.00;;
4646;SDS011;2336;47.822;7.564;2023-10-19T04:54:54;10.90;;;9.90;;
4646;SDS011;2336;47.822;7.564;2023-10-19T04:57:21;9.80;;;8.90;;
4646;SDS011;2336;47.822;7.564;2023-10-19T04:59:48;10.27;;;9.37;;
4646;SDS011;2336;47.822;7.564;2023-10-19T05:02:16;11.73;;;10.70;;
4646;SDS011;2336;47.822;7.564;2023-10-19T05:04:43;10.30;;;9.50;;
4646;SDS011;2336;47.822;7.564;2023-10-19T05:07:11;11.13;;;10.13;;
4646;SDS011;2336;47.822;7.564;2023-10-19T05:09:41;10.67;;;9.70;;
4646;SDS011;2336;47.822;7.564;2023-10-19T05:12:08;10.73;;;9.43;;
4646;SDS011;2336;47.822;7.564;2023-10-19T05:14:36;10.73;;;9.63;;
4646;SDS011;2336;47.822;7.564;2023-10-19T05:17:03;9.63;;;7.70;;
4646;SDS011;2336;47.822;7.564;2023-10-19T05:19:32;8.00;;;7.27;;
4646;SDS011;2336;47.822;7.564;2023-10-19T05:21:59;7.43;;;6.93;;
4646;SDS011;2336;47.822;7.564;2023-10-19T05:24:25;6.90;;;6.30;;
4646;SDS011;2336;47.822;7.564;2023-10-19T05:26:53;7.57;;;4.80;;
4646;SDS011;2336;47.822;7.564;2023-10-19T05:29:20;5.20;;;4.80;;
4646;SDS011;2336;47.822;7.564;2023-10-19T05:31:47;4.40;;;4.00;;
4646;SDS011;2336;47.822;7.564;2023-10-19T05:34:18;3.70;;;3.50;;
4646;SDS011;2336;47.822;7.564;2023-10-19T05:36:46;3.23;;;3.13;;
4646;SDS011;2336;47.822;7.564;2023-10-19T05:39:14;3.47;;;3.17;;
4646;SDS011;2336;47.822;7.564;2023-10-19T05:41:40;3.13;;;3.03;;
4646;SDS011;2336;47.822;7.564;2023-10-19T05:44:07;3.47;;;3.37;;
4646;SDS011;2336;47.822;7.564;2023-10-19T05:46:35;2.93;;;2.73;;
4646;SDS011;2336;47.822;7.564;2023-10-19T05:49:03;3.30;;;3.10;;
4646;SDS011;2336;47.822;7.564;2023-10-19T05:51:31;3.37;;;2.83;;
4646;SDS011;2336;47.822;7.564;2023-10-19T05:53:59;3.07;;;2.87;;
4646;SDS011;2336;47.822;7.564;2023-10-19T05:56:28;2.47;;;2.30;;
4646;SDS011;2336;47.822;7.564;2023-10-19T05:58:55;2.87;;;2.77;;
4646;SDS011;2336;47.822;7.564;2023-10-19T06:01:22;2.90;;;2.50;;
4646;SDS011;2336;47.822;7.564;2023-10-19T06:03:49;2.00;;;1.90;;
4646;SDS011;2336;47.822;7.564;2023-10-19T06:06:16;2.30;;;2.10;;
4646;SDS011;2336;47.822;7.564;2023-10-19T06:08:44;1.90;;;1.80;;
4646;SDS011;2336;47.822;7.564;2023-10-19T06:11:12;2.77;;;2.43;;
4646;SDS011;2336;47.822;7.564;2023-10-19T06:13:39;2.77;;;2.53;;
4646;SDS011;2336;47.822;7.564;2023-10-19T06:16:06;3.43;;;2.20;;
4646;SDS011;2336;47.822;7.564;2023-10-19T06:18:33;2.60;;;2.40;;
4646;SDS011;2336;47.822;7.564;2023-10-19T06:20:59;3.07;;;2.10;;
4646;SDS011;2336;47.822;7.564;2023-10-19T06:23:26;2.13;;;2.13;;
4646;SDS011;2336;47.822;7.564;2023-10-19T06:25:53;2.00;;;1.90;;
4646;SDS011;2336;47.822;7.564;2023-10-19T06:28:21;2.13;;;1.87;;
4646;SDS011;2336;47.822;7.564;2023-10-19T06:30:47;2.63;;;2.30;;
4646;SDS011;2336;47.822;7.564;2023-10-19T06:33:15;4.17;;;3.87;;
4646;SDS011;2336;47.822;7.564;2023-10-19T06:35:42;3.20;;;3.00;;
4646;SDS011;2336;47.822;7.564;2023-10-19T06:38:09;2.17;;;2.07;;
4646;SDS011;2336;47.822;7.564;2023-10-19T06:40:35;2.33;;;2.20;;
4646;SDS011;2336;47.822;7.564;2023-10-19T06:43:02;2.37;;;2.20;;
4646;SDS011;2336;47.822;7.564;2023-10-19T06:45:32;2.30;;;2.20;;
4646;SDS011;2336;47.822;7.564;2023-10-19T06:47:58;2.63;;;1.67;;
4646;SDS011;2336;47.822;7.564;2023-10-19T06:50:26;1.73;;;1.67;;
4646;SDS011;2336;47.822;7.564;2023-10-19T06:52:53;2.10;;;2.00;;
4646;SDS011;2336;47.822;7.564;2023-10-19T06:55:20;2.60;;;2.20;;
4646;SDS011;2336;47.822;7.564;2023-10-19T06:57:48;2.63;;;1.60;;
4646;SDS011;2336;47.822;7.564;2023-10-19T07:00:16;1.80;;;1.70;;
4646;SDS011;2336;47.822;7.564;2023-10-19T07:02:46;2.53;;;2.30;;
4646;SDS011;2336;47.822;7.564;2023-10-19T07:05:14;2.50;;;1.90;;
4646;SDS011;2336;47.822;7.564;2023-10-19T07:07:43;1.90;;;1.80;;
4646;SDS011;2336;47.822;7.564;2023-10-19T07:10:11;2.27;;;2.10;;
4646;SDS011;2336;47.822;7.564;2023-10-19T07:12:39;2.57;;;2.03;;
4646;SDS011;2336;47.822;7.564;2023-10-19T07:15:07;2.00;;;1.90;;
4646;SDS011;2336;47.822;7.564;2023-10-19T07:17:38;3.23;;;1.93;;
4646;SDS011;2336;47.822;7.564;2023-10-19T07:20:07;3.00;;;2.70;;
4646;SDS011;2336;47.822;7.564;2023-10-19T07:22:47;6.00;;;5.40;;
4646;SDS011;2336;47.822;7.564;2023-10-19T07:25:13;10.03;;;9.13;;
4646;SDS011;2336;47.822;7.564;2023-10-19T07:27:40;9.23;;;8.43;;
4646;SDS011;2336;47.822;7.564;2023-10-19T07:30:08;4.27;;;3.97;;
4646;SDS011;2336;47.822;7.564;2023-10-19T07:32:35;2.00;;;2.00;;
4646;SDS011;2336;47.822;7.564;2023-10-19T07:35:04;2.00;;;1.80;;
4646;SDS011;2336;47.822;7.564;2023-10-19T07:37:32;1.47;;;1.37;;
4646;SDS011;2336;47.822;7.564;2023-10-19T07:40:00;2.00;;;1.90;;
4646;SDS011;2336;47.822;7.564;2023-10-19T07:42:30;1.63;;;1.53;;
4646;SDS011;2336;47.822;7.564;2023-10-19T07:44:58;1.67;;;1.57;;
4646;SDS011;2336;47.822;7.564;2023-10-19T07:47:24;2.20;;;1.67;;
4646;SDS011;2336;47.822;7.564;2023-10-19T07:49:51;2.10;;;2.00;;
4646;SDS011;2336;47.822;7.564;2023-10-19T07:52:21;2.53;;;1.90;;
4646;SDS011;2336;47.822;7.564;2023-10-19T07:54:49;2.57;;;1.50;;
4646;SDS011;2336;47.822;7.564;2023-10-19T07:57:16;2.50;;;2.30;;
4646;SDS011;2336;47.822;7.564;2023-10-19T07:59:45;5.83;;;5.10;;
4646;SDS011;2336;47.822;7.564;2023-10-19T08:02:12;9.90;;;8.90;;
4646;SDS011;2336;47.822;7.564;2023-10-19T08:04:39;11.23;;;8.73;;
4646;SDS011;2336;47.822;7.564;2023-10-19T08:07:06;6.43;;;5.97;;
4646;SDS011;2336;47.822;7.564;2023-10-19T08:09:33;4.43;;;4.13;;
4646;SDS011;2336;47.822;7.564;2023-10-19T08:12:01;3.57;;;3.37;;
4646;SDS011;2336;47.822;7.564;2023-10-19T08:14:30;3.23;;;2.90;;
4646;SDS011;2336;47.822;7.564;2023-10-19T08:16:57;3.67;;;3.37;;
4646;SDS011;2336;47.822;7.564;2023-10-19T08:19:24;2.50;;;2.30;;
4646;SDS011;2336;47.822;7.564;2023-10-19T08:21:52;1.97;;;1.80;;
4646;SDS011;2336;47.822;7.564;2023-10-19T08:24:19;1.70;;;1.60;;
4646;SDS011;2336;47.822;7.564;2023-10-19T08:26:46;5.67;;;5.10;;
4646;SDS011;2336;47.822;7.564;2023-10-19T08:29:14;18.20;;;13.23;;
4646;SDS011;2336;47.822;7.564;2023-10-19T08:31:42;5.30;;;3.90;;
4646;SDS011;2336;47.822;7.564;2023-10-19T08:34:10;6.50;;;5.00;;
4646;SDS011;2336;47.822;7.564;2023-10-19T08:36:37;6.03;;;5.60;;
4646;SDS011;2336;47.822;7.564;2023-10-19T08:39:04;5.17;;;4.77;;
4646;SDS011;2336;47.822;7.564;2023-10-19T08:41:32;4.33;;;4.03;;
4646;SDS011;2336;47.822;7.564;2023-10-19T08:43:59;3.27;;;3.07;;
4646;SDS011;2336;47.822;7.564;2023-10-19T08:46:28;2.07;;;1.97;;
4646;SDS011;2336;47.822;7.564;2023-10-19T08:48:55;2.97;;;2.27;;
4646;SDS011;2336;47.822;7.564;2023-10-19T08:51:22;2.30;;;2.20;;
4646;SDS011;2336;47.822;7.564;2023-10-19T08:53:50;1.93;;;1.83;;
4646;SDS011;2336;47.822;7.564;2023-10-19T08:56:19;1.67;;;1.57;;
4646;SDS011;2336;47.822;7.564;2023-10-19T08:58:48;1.50;;;1.37;;
4646;SDS011;2336;47.822;7.564;2023-10-19T09:01:17;1.73;;;1.60;;
4646;SDS011;2336;47.822;7.564;2023-10-19T09:03:46;1.67;;;1.40;;
4646;SDS011;2336;47.822;7.564;2023-10-19T09:06:12;1.30;;;1.20;;
4646;SDS011;2336;47.822;7.564;2023-10-19T09:08:40;1.20;;;1.10;;
4646;SDS011;2336;47.822;7.564;2023-10-19T09:11:10;1.70;;;1.60;;
4646;SDS011;2336;47.822;7.564;2023-10-19T09:13:42;1.20;;;1.10;;
4646;SDS011;2336;47.822;7.564;2023-10-19T09:16:10;1.50;;;1.40;;
4646;SDS011;2336;47.822;7.564;2023-10-19T09:18:36;2.50;;;1.40;;
4646;SDS011;2336;47.822;7.564;2023-10-19T09:21:06;1.40;;;1.40;;
4646;SDS011;2336;47.822;7.564;2023-10-19T09:23:36;1.20;;;1.20;;
4646;SDS011;2336;47.822;7.564;2023-10-19T09:26:04;2.00;;;1.50;;
4646;SDS011;2336;47.822;7.564;2023-10-19T09:28:34;1.30;;;1.30;;
4646;SDS011;2336;47.822;7.564;2023-10-19T09:31:02;0.97;;;0.97;;
4646;SDS011;2336;47.822;7.564;2023-10-19T09:33:30;6.10;;;1.20;;
4646;SDS011;2336;47.822;7.564;2023-10-19T09:35:59;1.37;;;1.00;;
4646;SDS011;2336;47.822;7.564;2023-10-19T09:38:28;1.10;;;1.10;;
4646;SDS011;2336;47.822;7.564;2023-10-19T09:40:55;2.93;;;1.63;;
4646;SDS011;2336;47.822;7.564;2023-10-19T09:43:30;2.10;;;1.87;;
4646;SDS011;2336;47.822;7.564;2023-10-19T09:46:00;3.77;;;3.53;;
4646;SDS011;2336;47.822;7.564;2023-10-19T09:48:27;3.97;;;3.60;;
4646;SDS011;2336;47.822;7.564;2023-10-19T09:50:55;3.90;;;3.60;;
4646;SDS011;2336;47.822;7.564;2023-10-19T09:53:23;3.63;;;3.43;;
4646;SDS011;2336;47.822;7.564;2023-10-19T09:55:54;4.60;;;4.03;;
4646;SDS011;2336;47.822;7.564;2023-10-19T09:58:26;4.53;;;4.23;;
4646;SDS011;2336;47.822;7.564;2023-10-19T10:00:55;3.63;;;3.40;;
4646;SDS011;2336;47.822;7.564;2023-10-19T10:03:42;2.03;;;1.93;;
4646;SDS011;2336;47.822;7.564;2023-10-19T10:06:10;2.13;;;2.03;;
4646;SDS011;2336;47.822;7.564;2023-10-19T10:08:39;1.43;;;1.40;;
4646;SDS011;2336;47.822;7.564;2023-10-19T10:11:15;1.70;;;1.60;;
4646;SDS011;2336;47.822;7.564;2023-10-19T10:13:46;2.23;;;1.47;;
4646;SDS011;2336;47.822;7.564;2023-10-19T10:16:16;2.90;;;1.67;;
4646;SDS011;2336;47.822;7.564;2023-10-19T10:18:45;2.53;;;2.33;;
4646;SDS011;2336;47.822;7.564;2023-10-19T10:21:15;9.23;;;8.13;;
4646;SDS011;2336;47.822;7.564;2023-10-19T10:23:43;17.90;;;12.70;;
4646;SDS011;2336;47.822;7.564;2023-10-19T10:26:14;3.00;;;2.80;;
4646;SDS011;2336;47.822;7.564;2023-10-19T10:28:46;1.50;;;1.40;;
4646;SDS011;2336;47.822;7.564;2023-10-19T10:31:14;1.97;;;1.20;;
4646;SDS011;2336;47.822;7.564;2023-10-19T10:33:46;2.77;;;1.43;;
4646;SDS011;2336;47.822;7.564;2023-10-19T10:36:14;1.57;;;1.23;;
4646;SDS011;2336;47.822;7.564;2023-10-19T10:38:42;1.40;;;1.30;;
4646;SDS011;2336;47.822;7.564;2023-10-19T10:41:10;2.10;;;1.50;;
4646;SDS011;2336;47.822;7.564;2023-10-19T10:43:51;2.27;;;1.37;;
4646;SDS011;2336;47.822;7.564;2023-10-19T10:46:22;1.93;;;1.83;;
4646;SDS011;2336;47.822;7.564;2023-10-19T10:48:49;1.90;;;1.53;;
4646;SDS011;2336;47.822;7.564;2023-10-19T10:51:20;1.67;;;1.60;;
4646;SDS011;2336;47.822;7.564;2023-10-19T10:53:49;2.03;;;1.70;;
4646;SDS011;2336;47.822;7.564;2023-10-19T10:56:17;2.20;;;2.00;;
4646;SDS011;2336;47.822;7.564;2023-10-19T10:58:45;2.37;;;2.17;;
4646;SDS011;2336;47.822;7.564;2023-10-19T11:01:13;1.90;;;1.80;;
4646;SDS011;2336;47.822;7.564;2023-10-19T11:03:40;2.97;;;2.40;;
4646;SDS011;2336;47.822;7.564;2023-10-19T11:06:08;6.10;;;2.73;;
4646;SDS011;2336;47.822;7.564;2023-10-19T11:08:36;3.23;;;2.17;;
4646;SDS011;2336;47.822;7.564;2023-10-19T11:11:04;3.17;;;2.20;;
4646;SDS011;2336;47.822;7.564;2023-10-19T11:13:32;2.20;;;2.10;;
4646;SDS011;2336;47.822;7.564;2023-10-19T11:16:02;2.53;;;2.30;;
4646;SDS011;2336;47.822;7.564;2023-10-19T11:18:32;4.00;;;1.87;;
4646;SDS011;2336;47.822;7.564;2023-10-19T11:21:02;4.60;;;2.17;;
4646;SDS011;2336;47.822;7.564;2023-10-19T11:23:38;1.80;;;1.70;;
4646;SDS011;2336;47.822;7.564;2023-10-19T11:26:06;2.47;;;2.30;;
4646;SDS011;2336;47.822;7.564;2023-10-19T11:28:33;4.20;;;1.97;;
4646;SDS011;2336;47.822;7.564;2023-10-19T11:31:10;3.53;;;2.17;;
4646;SDS011;2336;47.822;7.564;2023-10-19T11:33:42;2.97;;;2.70;;
4646;SDS011;2336;47.822;7.564;2023-10-19T11:36:09;3.60;;;2.10;;
4646;SDS011;2336;47.822;7.564;2023-10-19T11:38:38;2.83;;;2.73;;
4646;SDS011;2336;47.822;7.564;2023-10-19T11:41:06;7.07;;;6.40;;
4646;SDS011;2336;47.822;7.564;2023-10-19T11:43:32;4.30;;;4.10;;
4646;SDS011;2336;47.822;7.564;2023-10-19T11:46:00;5.33;;;3.17;;
4646;SDS011;2336;47.822;7.564;2023-10-19T11:48:27;3.33;;;3.13;;
4646;SDS011;2336;47.822;7.564;2023-10-19T11:50:55;3.37;;;3.07;;
4646;SDS011;2336;47.822;7.564;2023-10-19T11:53:22;6.10;;;5.70;;
4646;SDS011;2336;47.822;7.564;2023-10-19T11:55:49;3.77;;;3.47;;
4646;SDS011;2336;47.822;7.564;2023-10-19T11:58:16;4.30;;;3.40;;
4646;SDS011;2336;47.822;7.564;2023-10-19T12:00:44;2.67;;;2.50;;
4646;SDS011;2336;47.822;7.564;2023-10-19T12:03:11;4.27;;;3.87;;
4646;SDS011;2336;47.822;7.564;2023-10-19T12:05:38;3.50;;;3.13;;
4646;SDS011;2336;47.822;7.564;2023-10-19T12:08:08;1.93;;;1.83;;
4646;SDS011;2336;47.822;7.564;2023-10-19T12:10:35;3.13;;;2.00;;
4646;SDS011;2336;47.822;7.564;2023-10-19T12:13:03;2.30;;;2.20;;
4646;SDS011;2336;47.822;7.564;2023-10-19T12:15:32;2.43;;;2.23;;
4646;SDS011;2336;47.822;7.564;2023-10-19T12:17:59;1.97;;;1.87;;
4646;SDS011;2336;47.822;7.564;2023-10-19T12:20:26;2.07;;;1.87;;
4646;SDS011;2336;47.822;7.564;2023-10-19T12:22:55;1.33;;;1.23;;
4646;SDS011;2336;47.822;7.564;2023-10-19T12:25:25;1.33;;;1.30;;
4646;SDS011;2336;47.822;7.564;2023-10-19T12:27:55;1.37;;;1.37;;
4646;SDS011;2336;47.822;7.564;2023-10-19T12:30:23;1.87;;;1.13;;
4646;SDS011;2336;47.822;7.564;2023-10-19T12:32:51;1.00;;;1.00;;
4646;SDS011;2336;47.822;7.564;2023-10-19T12:35:18;0.90;;;0.90;;
4646;SDS011;2336;47.822;7.564;2023-10-19T12:37:49;1.80;;;1.17;;
4646;SDS011;2336;47.822;7.564;2023-10-19T12:40:17;1.00;;;1.00;;
4646;SDS011;2336;47.822;7.564;2023-10-19T12:42:54;1.03;;;1.03;;
4646;SDS011;2336;47.822;7.564;2023-10-19T12:45:22;1.50;;;1.40;;
4646;SDS011;2336;47.822;7.564;2023-10-19T12:47:50;1.27;;;1.17;;
4646;SDS011;2336;47.822;7.564;2023-10-19T12:50:17;1.17;;;1.07;;
4646;SDS011;2336;47.822;7.564;2023-10-19T12:52:47;0.97;;;0.97;;
4646;SDS011;2336;47.822;7.564;2023-10-19T12:55:14;1.00;;;1.00;;
4646;SDS011;2336;47.822;7.564;2023-10-19T12:57:41;1.20;;;1.20;;
4646;SDS011;2336;47.822;7.564;2023-10-19T13:00:10;1.80;;;1.40;;
4646;SDS011;2336;47.822;7.564;2023-10-19T13:02:51;1.60;;;1.30;;
4646;SDS011;2336;47.822;7.564;2023-10-19T13:05:24;1.60;;;1.10;;
4646;SDS011;2336;47.822;7.564;2023-10-19T13:07:52;1.53;;;1.10;;
4646;SDS011;2336;47.822;7.564;2023-10-19T13:10:23;4.90;;;0.90;;
4646;SDS011;2336;47.822;7.564;2023-10-19T13:12:53;0.97;;;0.97;;
4646;SDS011;2336;47.822;7.564;2023-10-19T13:15:21;1.47;;;1.00;;
4646;SDS011;2336;47.822;7.564;2023-10-19T13:17:51;0.90;;;0.90;;
4646;SDS011;2336;47.822;7.564;2023-10-19T13:20:18;0.90;;;0.90;;
4646;SDS011;2336;47.822;7.564;2023-10-19T13:22:44;1.00;;;1.00;;
4646;SDS011;2336;47.822;7.564;2023-10-19T13:25:11;1.27;;;1.17;;
4646;SDS011;2336;47.822;7.564;2023-10-19T13:27:42;2.63;;;0.90;;
4646;SDS011;2336;47.822;7.564;2023-10-19T13:30:09;1.07;;;1.00;;
4646;SDS011;2336;47.822;7.564;2023-10-19T13:32:40;1.70;;;1.60;;
4646;SDS011;2336;47.822;7.564;2023-10-19T13:35:07;1.50;;;1.50;;
4646;SDS011;2336;47.822;7.564;2023-10-19T13:37:35;2.40;;;2.20;;
4646;SDS011;2336;47.822;7.564;2023-10-19T13:40:02;1.00;;;1.00;;
4646;SDS011;2336;47.822;7.564;2023-10-19T13:42:31;2.53;;;1.27;;
4646;SDS011;2336;47.822;7.564;2023-10-19T13:44:59;1.70;;;1.60;;
4646;SDS011;2336;47.822;7.564;2023-10-19T13:47:26;1.30;;;1.20;;
4646;SDS011;2336;47.822;7.564;2023-10-19T13:49:54;1.10;;;1.10;;
4646;SDS011;2336;47.822;7.564;2023-10-19T13:52:21;1.77;;;1.50;;
4646;SDS011;2336;47.822;7.564;2023-10-19T13:54:48;2.93;;;2.80;;
4646;SDS011;2336;47.822;7.564;2023-10-19T13:57:14;1.80;;;1.70;;
4646;SDS011;2336;47.822;7.564;2023-10-19T13:59:41;1.70;;;1.60;;
4646;SDS011;2336;47.822;7.564;2023-10-19T14:02:08;1.93;;;1.40;;
4646;SDS011;2336;47.822;7.564;2023-10-19T14:04:35;1.50;;;1.40;;
4646;SDS011;2336;47.822;7.564;2023-10-19T14:07:04;2.40;;;1.50;;
4646;SDS011;2336;47.822;7.564;2023-10-19T14:09:30;1.20;;;1.20;;
4646;SDS011;2336;47.822;7.564;2023-10-19T14:11:58;2.70;;;2.60;;
4646;SDS011;2336;47.822;7.564;2023-10-19T14:14:27;2.63;;;2.40;;
4646;SDS011;2336;47.822;7.564;2023-10-19T14:16:53;2.40;;;2.30;;
4646;SDS011;2336;47.822;7.564;2023-10-19T14:19:20;3.10;;;3.00;;
4646;SDS011;2336;47.822;7.564;2023-10-19T14:21:47;3.30;;;3.10;;
4646;SDS011;2336;47.822;7.564;2023-10-19T14:24:15;10.30;;;6.00;;
4646;SDS011;2336;47.822;7.564;2023-10-19T14:26:44;22.07;;;8.50;;
4646;SDS011;2336;47.822;7.564;2023-10-19T14:29:11;11.37;;;6.23;;
4646;SDS011;2336;47.822;7.564;2023-10-19T14:31:38;7.30;;;4.47;;
4646;SDS011;2336;47.822;7.564;2023-10-19T14:34:05;6.30;;;5.17;;
4646;SDS011;2336;47.822;7.564;2023-10-19T14:36:33;4.40;;;4.00;;
4646;SDS011;2336;47.822;7.564;2023-10-19T14:39:00;32.10;;;12.30;;
4646;SDS011;2336;47.822;7.564;2023-10-19T14:41:28;22.23;;;10.57;;
4646;SDS011;2336;47.822;7.564;2023-10-19T14:43:55;41.67;;;15.43;;
4646;SDS011;2336;47.822;7.564;2023-10-19T14:46:24;21.13;;;9.97;;
4646;SDS011;2336;47.822;7.564;2023-10-19T14:48:52;14.93;;;8.20;;
4646;SDS011;2336;47.822;7.564;2023-10-19T14:51:19;13.03;;;8.30;;
4646;SDS011;2336;47.822;7.564;2023-10-19T14:53:45;42.50;;;17.23;;
4646;SDS011;2336;47.822;7.564;2023-10-19T14:56:12;37.33;;;16.93;;
4646;SDS011;2336;47.822;7.564;2023-10-19T14:58:41;38.90;;;16.10;;
4646;SDS011;2336;47.822;7.564;2023-10-19T15:01:07;35.97;;;16.33;;
4646;SDS011;2336;47.822;7.564;2023-10-19T15:03:40;32.67;;;15.70;;
4646;SDS011;2336;47.822;7.564;2023-10-19T15:06:06;27.63;;;14.00;;
4646;SDS011;2336;47.822;7.564;2023-10-19T15:08:33;22.57;;;12.90;;
4646;SDS011;2336;47.822;7.564;2023-10-19T15:11:00;20.20;;;11.17;;
4646;SDS011;2336;47.822;7.564;2023-10-19T15:13:27;19.37;;;10.50;;
4646;SDS011;2336;47.822;7.564;2023-10-19T15:15:56;18.80;;;10.93;;
4646;SDS011;2336;47.822;7.564;2023-10-19T15:18:22;12.70;;;8.63;;
4646;SDS011;2336;47.822;7.564;2023-10-19T15:20:49;11.67;;;7.70;;